Time;durP1;ratioP1;P1;durP2;ratioP2;P2;SDS_P1;SDS_P2;PMS_P1;PMS_P2;Temp;Humidity;BMP_temperature;BMP_pressure;BME280_temperature;BME280_humidity;BME280_pressure;Samples;Min_cycle;Max_cycle;Signal;HPM_P1;HPM_P2
2023/09/25 00:00:51;;;;;;;1.83;1.43;;;;;17.00;97561.00;;;;5088585;28;20222;-71
2023/09/25 00:03:41;;;;;;;1.07;1.00;;;;;17.00;97557.00;;;;5080165;28;20203;-71
2023/09/25 00:06:31;;;;;;;2.10;1.47;;;;;17.00;97554.00;;;;5082800;28;20624;-71
2023/09/25 00:09:20;;;;;;;1.17;1.00;;;;;17.00;97568.00;;;;5082830;28;20205;-70
2023/09/25 00:12:09;;;;;;;1.27;1.00;;;;;16.90;97563.00;;;;5079134;28;20211;-71
2023/09/25 00:14:58;;;;;;;1.03;0.90;;;;;17.00;97571.00;;;;5082787;28;20694;-70
2023/09/25 00:17:47;;;;;;;1.50;1.30;;;;;16.90;97559.00;;;;5085475;28;20195;-70
2023/09/25 00:20:37;;;;;;;2.60;1.10;;;;;16.80;97567.00;;;;5083420;28;20659;-71
2023/09/25 00:23:27;;;;;;;1.30;1.20;;;;;16.80;97559.00;;;;5081871;28;20730;-71
2023/09/25 00:26:16;;;;;;;2.77;1.33;;;;;16.90;97558.00;;;;5080445;28;20210;-71
2023/09/25 00:29:05;;;;;;;1.43;1.20;;;;;16.50;97549.00;;;;5079961;28;20578;-71
2023/09/25 00:31:54;;;;;;;1.20;1.10;;;;;16.80;97546.00;;;;5082025;28;20602;-70
2023/09/25 00:34:43;;;;;;;2.50;1.10;;;;;16.50;97534.00;;;;5080856;28;20664;-70
2023/09/25 00:37:32;;;;;;;1.57;1.20;;;;;16.50;97543.00;;;;5083482;28;20211;-70
2023/09/25 00:40:24;;;;;;;1.97;1.33;;;;;16.40;97528.00;;;;5084404;28;20219;-70
2023/09/25 00:43:14;;;;;;;1.37;1.10;;;;;16.40;97526.00;;;;5077827;28;20218;-70
2023/09/25 00:46:03;;;;;;;2.70;1.73;;;;;16.00;97522.00;;;;5085720;28;20617;-70
2023/09/25 00:48:52;;;;;;;1.63;1.27;;;;;16.10;97516.00;;;;5082172;28;20210;-70
2023/09/25 00:51:41;;;;;;;3.43;1.20;;;;;15.90;97513.00;;;;5085233;28;20211;-70
2023/09/25 00:54:31;;;;;;;3.47;1.53;;;;;15.70;97504.00;;;;5085211;28;20672;-70
2023/09/25 00:57:28;;;;;;;2.50;1.17;;;;;15.70;97500.00;;;;5082102;28;20957;-70
2023/09/25 01:00:18;;;;;;;1.80;1.30;;;;;15.40;97495.00;;;;5079769;28;20238;-70
2023/09/25 01:03:07;;;;;;;2.30;1.10;;;;;15.20;97495.00;;;;5086565;28;20684;-70
2023/09/25 01:05:56;;;;;;;2.93;1.50;;;;;15.40;97502.00;;;;5085953;28;20199;-70
2023/09/25 01:08:45;;;;;;;1.63;1.53;;;;;15.20;97495.00;;;;5083929;28;20657;-70
2023/09/25 01:11:34;;;;;;;2.03;1.20;;;;;15.10;97497.00;;;;5104929;22;20239;-71
2023/09/25 01:14:24;;;;;;;1.80;1.70;;;;;14.90;97498.00;;;;5082551;28;20200;-70
2023/09/25 01:17:13;;;;;;;2.57;1.83;;;;;15.00;97501.00;;;;5078834;28;20321;-72
2023/09/25 01:20:05;;;;;;;2.07;1.80;;;;;15.10;97501.00;;;;5087137;28;20638;-71
2023/09/25 01:22:56;;;;;;;2.33;1.37;;;;;14.90;97501.00;;;;5081488;28;20200;-71
2023/09/25 01:25:45;;;;;;;1.60;1.20;;;;;14.90;97493.00;;;;5086754;28;20195;-70
2023/09/25 01:28:34;;;;;;;2.83;1.40;;;;;14.80;97504.00;;;;5090326;28;20648;-71
2023/09/25 01:31:23;;;;;;;1.13;1.10;;;;;14.50;97495.00;;;;5088227;28;20598;-71
2023/09/25 01:34:12;;;;;;;3.13;1.43;;;;;14.60;97491.00;;;;5084072;28;20214;-71
2023/09/25 01:37:04;;;;;;;2.43;1.30;;;;;14.40;97489.00;;;;5083851;28;20204;-72
2023/09/25 01:39:54;;;;;;;1.73;1.63;;;;;14.30;97495.00;;;;5090583;28;20207;-71
2023/09/25 01:42:44;;;;;;;1.50;1.20;;;;;14.20;97495.00;;;;5087504;28;20690;-71
2023/09/25 01:45:33;;;;;;;2.40;1.40;;;;;14.00;97497.00;;;;5081914;28;20593;-71
2023/09/25 01:48:23;;;;;;;1.73;1.33;;;;;13.80;97495.00;;;;5083906;28;20203;-71
2023/09/25 01:51:13;;;;;;;2.40;1.77;;;;;13.70;97499.00;;;;5086543;28;20219;-70
2023/09/25 01:54:02;;;;;;;3.87;1.70;;;;;13.70;97495.00;;;;5085922;28;20759;-72
2023/09/25 01:56:53;;;;;;;1.20;1.10;;;;;13.60;97481.00;;;;5085539;28;20199;-71
2023/09/25 01:59:41;;;;;;;1.40;1.30;;;;;13.40;97483.00;;;;5085347;28;20200;-71
2023/09/25 02:02:30;;;;;;;4.73;2.40;;;;;13.20;97481.00;;;;5083905;28;20203;-69
2023/09/25 02:05:19;;;;;;;2.10;1.70;;;;;13.20;97470.00;;;;5083071;28;20676;-70
2023/09/25 02:08:10;;;;;;;1.70;1.60;;;;;13.00;97467.00;;;;5088513;28;20219;-70
2023/09/25 02:10:58;;;;;;;1.87;1.33;;;;;12.90;97467.00;;;;5090331;28;20227;-70
2023/09/25 02:13:49;;;;;;;2.13;1.37;;;;;13.00;97459.00;;;;5087848;28;20210;-71
2023/09/25 02:16:38;;;;;;;1.73;1.63;;;;;13.50;97469.00;;;;5086923;28;20196;-71
2023/09/25 02:19:28;;;;;;;5.13;1.60;;;;;13.60;97462.00;;;;5086850;28;20218;-71
2023/09/25 02:22:17;;;;;;;4.40;1.50;;;;;13.10;97461.00;;;;5084154;28;20219;-69
2023/09/25 02:25:08;;;;;;;3.00;1.70;;;;;13.40;97456.00;;;;5089324;28;20215;-69
2023/09/25 02:27:57;;;;;;;3.27;1.60;;;;;12.70;97457.00;;;;5085205;28;20195;-71
2023/09/25 02:30:48;;;;;;;1.90;1.60;;;;;12.70;97454.00;;;;5086458;28;20223;-69
2023/09/25 02:33:36;;;;;;;1.77;1.57;;;;;12.70;97451.00;;;;5081572;28;20219;-70
2023/09/25 02:36:26;;;;;;;1.30;1.20;;;;;12.70;97451.00;;;;5082268;28;20215;-69
2023/09/25 02:39:15;;;;;;;1.60;1.50;;;;;12.50;97460.00;;;;5082463;28;20703;-73
2023/09/25 02:42:04;;;;;;;1.47;1.37;;;;;12.30;97449.00;;;;5088903;28;20227;-70
2023/09/25 02:44:53;;;;;;;1.53;1.43;;;;;12.10;97465.00;;;;5081466;28;20227;-69
2023/09/25 02:47:44;;;;;;;5.47;1.67;;;;;12.20;97467.00;;;;5084988;28;20316;-70
2023/09/25 02:50:33;;;;;;;2.23;2.00;;;;;12.50;97483.00;;;;5086588;28;20257;-71
2023/09/25 02:53:22;;;;;;;4.50;1.60;;;;;12.00;97474.00;;;;5084995;28;20222;-69
2023/09/25 02:56:11;;;;;;;1.73;1.63;;;;;11.80;97477.00;;;;5087239;28;20203;-69
2023/09/25 02:59:01;;;;;;;3.67;1.97;;;;;12.30;97479.00;;;;5085475;28;20199;-69
2023/09/25 03:01:50;;;;;;;1.90;1.60;;;;;12.50;97476.00;;;;5084273;28;20230;-70
2023/09/25 03:04:41;;;;;;;1.73;1.60;;;;;12.70;97476.00;;;;5084587;28;20218;-71
2023/09/25 03:07:31;;;;;;;2.80;1.67;;;;;12.50;97473.00;;;;5083304;28;20574;-70
2023/09/25 03:10:21;;;;;;;4.83;1.60;;;;;12.60;97470.00;;;;5078164;28;20235;-70
2023/09/25 03:13:10;;;;;;;2.63;1.40;;;;;12.80;97472.00;;;;5085562;28;20244;-70
2023/09/25 03:15:59;;;;;;;3.80;1.67;;;;;12.60;97473.00;;;;5079035;28;20215;-70
2023/09/25 03:18:48;;;;;;;2.03;1.53;;;;;12.40;97464.00;;;;5088306;28;20199;-70
2023/09/25 03:21:38;;;;;;;1.47;1.37;;;;;12.40;97468.00;;;;5083974;28;20223;-70
2023/09/25 03:24:28;;;;;;;1.40;1.30;;;;;12.40;97462.00;;;;5077823;28;20199;-69
2023/09/25 03:27:17;;;;;;;1.90;1.80;;;;;12.60;97469.00;;;;5083228;28;20207;-69
2023/09/25 03:30:07;;;;;;;1.50;1.40;;;;;12.40;97472.00;;;;5085232;28;20203;-69
2023/09/25 03:32:56;;;;;;;2.37;2.07;;;;;12.40;97469.00;;;;5084204;28;20211;-69
2023/09/25 03:35:45;;;;;;;2.27;1.50;;;;;12.30;97459.00;;;;5082505;28;20202;-70
2023/09/25 03:38:37;;;;;;;4.20;2.03;;;;;12.00;97467.00;;;;5078925;28;20207;-69
2023/09/25 03:41:26;;;;;;;3.40;1.90;;;;;12.10;97458.00;;;;5082399;28;20234;-69
2023/09/25 03:44:15;;;;;;;3.33;1.37;;;;;12.20;97465.00;;;;5082437;28;20207;-70
2023/09/25 03:47:05;;;;;;;2.00;1.90;;;;;11.70;97470.00;;;;5086590;28;20554;-69
2023/09/25 03:49:54;;;;;;;2.37;1.73;;;;;12.00;97467.00;;;;5086808;28;20230;-68
2023/09/25 03:52:43;;;;;;;5.10;1.93;;;;;12.00;97470.00;;;;5086600;28;20579;-70
2023/09/25 03:55:33;;;;;;;3.33;1.53;;;;;12.20;97465.00;;;;5084794;28;20218;-69
2023/09/25 03:58:22;;;;;;;3.00;1.50;;;;;12.30;97471.00;;;;5078759;28;20203;-69
2023/09/25 04:01:11;;;;;;;2.13;1.93;;;;;12.30;97471.00;;;;5081050;28;20219;-69
2023/09/25 04:04:00;;;;;;;1.70;1.60;;;;;11.80;97474.00;;;;5086609;28;20202;-69
2023/09/25 04:06:49;;;;;;;2.17;2.00;;;;;11.80;97475.00;;;;5081116;28;20200;-69
2023/09/25 04:09:38;;;;;;;2.90;1.47;;;;;11.70;97477.00;;;;5086996;28;20199;-70
2023/09/25 04:12:29;;;;;;;10.87;2.27;;;;;11.80;97472.00;;;;5084540;28;20199;-69
2023/09/25 04:15:19;;;;;;;4.80;1.70;;;;;11.70;97471.00;;;;5079722;28;20245;-70
2023/09/25 04:18:12;;;;;;;1.60;1.50;;;;;12.00;97479.00;;;;5079558;28;20226;-69
2023/09/25 04:21:03;;;;;;;3.83;1.40;;;;;11.90;97477.00;;;;5087322;28;20219;-69
2023/09/25 04:23:52;;;;;;;3.00;1.70;;;;;12.10;97493.00;;;;5088105;28;20652;-70
2023/09/25 04:26:41;;;;;;;2.97;1.53;;;;;11.70;97478.00;;;;5086339;28;20222;-69
2023/09/25 04:29:31;;;;;;;3.87;1.57;;;;;11.70;97488.00;;;;5083145;28;20203;-69
2023/09/25 04:32:20;;;;;;;1.70;1.60;;;;;12.10;97490.00;;;;5085213;28;20196;-70
2023/09/25 04:35:11;;;;;;;2.20;2.00;;;;;11.90;97493.00;;;;5076654;28;20214;-69
2023/09/25 04:38:03;;;;;;;3.70;1.90;;;;;12.00;97488.00;;;;5086204;28;20207;-70
2023/09/25 04:40:52;;;;;;;1.70;1.57;;;;;12.10;97501.00;;;;5082514;28;20683;-69
2023/09/25 04:43:41;;;;;;;2.23;1.47;;;;;11.70;97487.00;;;;5083304;28;20222;-69
2023/09/25 04:46:31;;;;;;;2.33;1.57;;;;;11.70;97491.00;;;;5085081;28;20214;-70
2023/09/25 04:49:21;;;;;;;1.30;1.20;;;;;11.60;97481.00;;;;5079616;28;20840;-70
2023/09/25 04:52:10;;;;;;;1.23;1.13;;;;;11.80;97504.00;;;;5086289;28;20219;-69
2023/09/25 04:54:59;;;;;;;3.07;1.77;;;;;11.20;97499.00;;;;5084999;28;20687;-70
2023/09/25 04:57:48;;;;;;;1.43;1.30;;;;;11.30;97503.00;;;;5084729;28;20203;-71
2023/09/25 05:00:38;;;;;;;2.97;1.63;;;;;11.50;97495.00;;;;5086340;28;20727;-70
2023/09/25 05:03:28;;;;;;;2.13;1.63;;;;;11.30;97498.00;;;;5086104;28;20226;-70
2023/09/25 05:06:17;;;;;;;1.97;1.73;;;;;11.70;97498.00;;;;5082102;28;20210;-72
2023/09/25 05:09:06;;;;;;;6.13;1.73;;;;;12.00;97510.00;;;;5084702;28;20215;-70
2023/09/25 05:11:56;;;;;;;1.87;1.70;;;;;12.00;97502.00;;;;5085928;28;20700;-69
2023/09/25 05:14:45;;;;;;;1.73;1.63;;;;;11.80;97496.00;;;;5085786;28;20605;-70
2023/09/25 05:17:35;;;;;;;3.70;1.83;;;;;11.50;97496.00;;;;5084685;28;20243;-69
2023/09/25 05:20:26;;;;;;;2.83;1.87;;;;;12.10;97516.00;;;;5088098;28;20223;-70
2023/09/25 05:23:18;;;;;;;3.07;1.90;;;;;12.20;97502.00;;;;5082841;28;20226;-70
2023/09/25 05:26:08;;;;;;;1.43;1.33;;;;;12.20;97504.00;;;;5088755;28;20207;-71
2023/09/25 05:28:57;;;;;;;1.53;1.43;;;;;12.50;97510.00;;;;5089254;28;20222;-70
2023/09/25 05:31:47;;;;;;;1.60;1.50;;;;;12.50;97513.00;;;;5084338;28;20297;-70
2023/09/25 05:34:36;;;;;;;2.10;1.50;;;;;12.80;97521.00;;;;5085874;28;20210;-70
2023/09/25 05:37:26;;;;;;;2.47;2.07;;;;;12.50;97511.00;;;;5087550;28;20203;-70
2023/09/25 05:40:16;;;;;;;2.83;2.10;;;;;12.10;97501.00;;;;5087750;28;20222;-70
2023/09/25 05:43:05;;;;;;;2.10;1.90;;;;;11.80;97491.00;;;;5079782;28;20226;-69
2023/09/25 05:45:54;;;;;;;16.47;6.50;;;;;12.10;97503.00;;;;5083068;28;20200;-70
2023/09/25 05:48:43;;;;;;;21.33;7.47;;;;;12.20;97524.00;;;;5086107;28;20215;-73
2023/09/25 05:51:32;;;;;;;4.67;3.07;;;;;12.40;97513.00;;;;5085265;28;20248;-69
2023/09/25 05:54:23;;;;;;;6.13;2.90;;;;;13.00;97519.00;;;;5085406;28;20526;-70
2023/09/25 05:57:12;;;;;;;8.67;3.67;;;;;13.40;97528.00;;;;5084691;28;20683;-70
2023/09/25 06:00:01;;;;;;;4.80;3.10;;;;;13.40;97533.00;;;;5085985;28;20207;-70
2023/09/25 06:02:50;;;;;;;4.87;2.50;;;;;13.40;97539.00;;;;5084990;28;20707;-70
2023/09/25 06:05:39;;;;;;;5.13;2.60;;;;;13.30;97537.00;;;;5087734;28;20207;-70
2023/09/25 06:08:28;;;;;;;2.37;2.10;;;;;13.50;97549.00;;;;5079982;28;20207;-71
2023/09/25 06:11:19;;;;;;;1.73;1.60;;;;;13.70;97545.00;;;;5087904;28;20241;-72
2023/09/25 06:14:09;;;;;;;2.97;1.80;;;;;13.70;97543.00;;;;5088379;28;20202;-70
2023/09/25 06:16:59;;;;;;;1.83;1.60;;;;;13.70;97552.00;;;;5085299;28;20203;-71
2023/09/25 06:19:48;;;;;;;3.37;1.80;;;;;13.80;97546.00;;;;5086800;28;20215;-71
2023/09/25 06:22:37;;;;;;;2.27;1.80;;;;;13.50;97556.00;;;;5081645;28;20234;-70
2023/09/25 06:25:29;;;;;;;3.13;1.50;;;;;13.70;97563.00;;;;5084732;28;20207;-71
2023/09/25 06:28:23;;;;;;;1.73;1.60;;;;;13.50;97552.00;;;;5085993;28;20215;-71
2023/09/25 06:31:13;;;;;;;1.77;1.53;;;;;13.60;97555.00;;;;5084805;28;20230;-71
2023/09/25 06:34:02;;;;;;;2.07;1.87;;;;;13.60;97549.00;;;;5087581;28;20199;-71
2023/09/25 06:36:51;;;;;;;4.43;2.10;;;;;13.70;97561.00;;;;5086897;28;20196;-70
2023/09/25 06:39:40;;;;;;;1.60;1.50;;;;;13.90;97558.00;;;;5084336;28;20225;-71
2023/09/25 06:42:29;;;;;;;2.90;1.97;;;;;13.80;97567.00;;;;5084873;28;20199;-70
2023/09/25 06:45:21;;;;;;;2.30;2.10;;;;;14.20;97572.00;;;;5082344;28;20211;-70
2023/09/25 06:48:10;;;;;;;4.07;2.13;;;;;14.40;97577.00;;;;5079217;28;20207;-71
2023/09/25 06:50:59;;;;;;;2.13;1.93;;;;;14.60;97584.00;;;;5086566;28;20234;-70
2023/09/25 06:53:48;;;;;;;6.10;2.33;;;;;14.80;97577.00;;;;5086837;28;20199;-70
2023/09/25 06:56:37;;;;;;;2.83;2.30;;;;;14.90;97590.00;;;;5083244;28;20207;-70
2023/09/25 06:59:27;;;;;;;4.13;3.50;;;;;14.90;97596.00;;;;5078126;28;20789;-71
2023/09/25 07:02:18;;;;;;;3.07;2.13;;;;;15.00;97596.00;;;;5086159;28;20238;-70
2023/09/25 07:05:07;;;;;;;2.30;2.10;;;;;15.20;97593.00;;;;5088465;28;20329;-71
2023/09/25 07:07:57;;;;;;;4.00;2.13;;;;;15.30;97602.00;;;;5085624;28;20235;-71
2023/09/25 07:10:48;;;;;;;3.40;2.50;;;;;15.40;97608.00;;;;5083025;28;20231;-70
2023/09/25 07:13:37;;;;;;;3.53;2.47;;;;;15.50;97608.00;;;;5084779;28;20230;-70
2023/09/25 07:16:26;;;;;;;2.33;2.13;;;;;15.40;97615.00;;;;5083032;28;20603;-71
2023/09/25 07:19:17;;;;;;;5.47;3.10;;;;;15.20;97598.00;;;;5087655;28;20214;-70
2023/09/25 07:22:06;;;;;;;2.70;2.50;;;;;14.80;97611.00;;;;5088464;28;20229;-70
2023/09/25 07:24:55;;;;;;;5.47;1.97;;;;;14.90;97608.00;;;;5081899;28;20234;-71
2023/09/25 07:27:44;;;;;;;1.93;1.70;;;;;15.00;97614.00;;;;5082056;28;20215;-70
2023/09/25 07:30:33;;;;;;;2.70;1.73;;;;;14.80;97608.00;;;;5082051;28;20227;-72
2023/09/25 07:33:23;;;;;;;1.67;1.57;;;;;14.80;97611.00;;;;5086050;28;20199;-70
2023/09/25 07:36:18;;;;;;;2.60;2.10;;;;;14.90;97612.00;;;;5082535;28;20199;-70
2023/09/25 07:39:13;;;;;;;3.23;2.93;;;;;15.00;97613.00;;;;5087052;28;20577;-70
2023/09/25 07:42:02;;;;;;;2.33;2.10;;;;;14.90;97619.00;;;;5082926;28;20227;-70
2023/09/25 07:44:51;;;;;;;2.53;1.37;;;;;14.70;97611.00;;;;5080925;28;20219;-70
2023/09/25 07:47:40;;;;;;;2.20;1.77;;;;;14.80;97620.00;;;;5081868;28;20212;-72
2023/09/25 07:50:29;;;;;;;3.23;1.83;;;;;15.10;97626.00;;;;5081546;28;20231;-71
2023/09/25 07:53:20;;;;;;;2.13;2.03;;;;;15.40;97626.00;;;;5078817;28;20215;-70
2023/09/25 07:56:09;;;;;;;2.03;1.87;;;;;15.60;97625.00;;;;5078946;28;20233;-71
2023/09/25 07:58:58;;;;;;;2.47;2.03;;;;;15.50;97635.00;;;;5080559;28;20214;-70
2023/09/25 08:01:47;;;;;;;2.37;1.70;;;;;15.60;97634.00;;;;5083602;28;20239;-72
2023/09/25 08:04:37;;;;;;;1.67;1.57;;;;;15.60;97641.00;;;;5082210;28;20234;-70
2023/09/25 08:07:26;;;;;;;2.13;1.93;;;;;15.50;97636.00;;;;5081392;28;20207;-72
2023/09/25 08:10:17;;;;;;;5.40;2.30;;;;;15.60;97642.00;;;;5080363;28;20608;-70
2023/09/25 08:13:06;;;;;;;1.63;1.53;;;;;15.50;97644.00;;;;5082071;28;20207;-70
2023/09/25 08:15:55;;;;;;;2.90;1.60;;;;;15.80;97650.00;;;;5083734;28;20210;-70
2023/09/25 08:18:44;;;;;;;2.57;2.37;;;;;16.00;97644.00;;;;5083809;28;20198;-71
2023/09/25 08:21:33;;;;;;;1.50;1.40;;;;;15.90;97655.00;;;;5082836;28;20227;-70
2023/09/25 08:24:22;;;;;;;1.70;1.60;;;;;15.80;97658.00;;;;5078714;28;20234;-74
2023/09/25 08:27:12;;;;;;;2.13;1.70;;;;;16.10;97654.00;;;;5080010;28;20207;-70
2023/09/25 08:30:01;;;;;;;6.53;2.20;;;;;16.10;97653.00;;;;5085883;28;20200;-70
2023/09/25 08:32:50;;;;;;;2.63;2.40;;;;;16.30;97651.00;;;;5082330;28;20202;-72
2023/09/25 08:35:40;;;;;;;2.57;1.80;;;;;16.20;97663.00;;;;5084001;28;20676;-71
2023/09/25 08:38:29;;;;;;;3.30;2.33;;;;;16.50;97657.00;;;;5085683;28;20692;-70
2023/09/25 08:41:19;;;;;;;3.30;1.63;;;;;16.60;97660.00;;;;5085065;28;20211;-72
2023/09/25 08:44:11;;;;;;;7.87;2.23;;;;;16.60;97669.00;;;;5083084;28;20222;-71
2023/09/25 08:47:00;;;;;;;2.80;2.13;;;;;16.50;97672.00;;;;5086521;28;20585;-71
2023/09/25 08:49:50;;;;;;;3.50;2.50;;;;;16.60;97676.00;;;;5088314;28;20199;-71
2023/09/25 08:52:39;;;;;;;5.07;2.37;;;;;16.40;97666.00;;;;5085835;28;20207;-71
2023/09/25 08:55:30;;;;;;;3.00;2.20;;;;;16.80;97679.00;;;;5087582;28;20206;-71
2023/09/25 08:58:19;;;;;;;3.33;2.10;;;;;17.10;97672.00;;;;5088389;28;20210;-71
2023/09/25 09:01:09;;;;;;;4.17;1.83;;;;;17.00;97664.00;;;;5090293;28;20223;-70
2023/09/25 09:03:58;;;;;;;7.33;2.20;;;;;17.30;97672.00;;;;5082118;28;20272;-70
2023/09/25 09:06:47;;;;;;;2.50;2.20;;;;;17.40;97674.00;;;;5087801;28;20289;-70
2023/09/25 09:09:36;;;;;;;4.83;2.23;;;;;17.40;97680.00;;;;5083423;28;20203;-70
2023/09/25 09:12:25;;;;;;;2.87;2.27;;;;;17.50;97673.00;;;;5084540;28;20210;-70
2023/09/25 09:15:26;;;;;;;2.93;2.33;;;;;17.30;97675.00;;;;5082310;28;20195;-72
2023/09/25 09:18:20;;;;;;;2.07;1.87;;;;;17.10;97682.00;;;;5084153;28;20215;-71
2023/09/25 09:21:23;;;;;;;4.13;2.30;;;;;17.10;97673.00;;;;5086263;28;20312;-71
2023/09/25 09:24:21;;;;;;;3.63;2.30;;;;;17.40;97669.00;;;;5084265;28;20215;-70
2023/09/25 09:27:11;;;;;;;1.73;1.63;;;;;17.50;97679.00;;;;5086889;28;20239;-70
2023/09/25 09:30:02;;;;;;;3.60;1.97;;;;;17.50;97686.00;;;;5086967;28;20282;-70
2023/09/25 09:32:51;;;;;;;2.80;1.83;;;;;17.50;97680.00;;;;5084518;28;20715;-71
2023/09/25 09:35:43;;;;;;;2.20;1.87;;;;;17.50;97685.00;;;;5081476;28;20207;-70
2023/09/25 09:38:33;;;;;;;2.43;1.70;;;;;17.50;97686.00;;;;5087846;28;20211;-71
2023/09/25 09:41:23;;;;;;;2.47;2.00;;;;;17.60;97695.00;;;;5082983;28;20228;-71
2023/09/25 09:44:12;;;;;;;1.77;1.67;;;;;17.70;97679.00;;;;5086518;28;20592;-70
2023/09/25 09:47:03;;;;;;;2.63;1.40;;;;;17.70;97687.00;;;;5088698;28;20589;-71
2023/09/25 09:49:52;;;;;;;2.37;1.90;;;;;17.80;97693.00;;;;5083628;28;20195;-70
2023/09/25 09:52:43;;;;;;;1.87;1.53;;;;;17.90;97701.00;;;;5086324;28;20208;-72
2023/09/25 09:55:33;;;;;;;2.13;1.70;;;;;17.90;97694.00;;;;5084600;28;20199;-71
2023/09/25 09:58:23;;;;;;;2.03;1.80;;;;;17.80;97691.00;;;;5086454;28;20277;-71
2023/09/25 10:01:13;;;;;;;2.10;1.67;;;;;17.60;97698.00;;;;5084990;28;20223;-70
2023/09/25 10:04:03;;;;;;;1.87;1.63;;;;;18.00;97695.00;;;;5080677;28;20241;-71
2023/09/25 10:06:53;;;;;;;2.43;2.00;;;;;18.10;97703.00;;;;5085681;28;20686;-72
2023/09/25 10:09:57;;;;;;;4.37;1.93;;;;;17.90;97691.00;;;;5087029;28;20210;-71
2023/09/25 10:12:48;;;;;;;2.67;2.03;;;;;17.90;97695.00;;;;5084214;28;20199;-71
2023/09/25 10:15:38;;;;;;;4.57;2.10;;;;;18.30;97707.00;;;;5082825;28;20228;-71
2023/09/25 10:18:27;;;;;;;3.87;2.07;;;;;18.00;97705.00;;;;5079846;28;20191;-71
2023/09/25 10:21:17;;;;;;;3.83;2.07;;;;;17.70;97702.00;;;;5081409;28;20701;-70
2023/09/25 10:24:25;;;;;;;4.43;1.80;;;;;17.50;97706.00;;;;5084558;28;20204;-71
2023/09/25 10:27:18;;;;;;;1.57;1.47;;;;;17.80;97702.00;;;;5082370;28;20203;-71
2023/09/25 10:30:11;;;;;;;3.53;1.57;;;;;18.50;97698.00;;;;5082334;28;20202;-70
2023/09/25 10:33:01;;;;;;;1.90;1.60;;;;;18.40;97708.00;;;;5081944;28;20207;-70
2023/09/25 10:35:52;;;;;;;3.20;1.73;;;;;18.40;97712.00;;;;5083204;28;20207;-71
2023/09/25 10:38:42;;;;;;;2.63;1.67;;;;;18.20;97699.00;;;;5082436;28;20211;-70
2023/09/25 10:41:32;;;;;;;5.60;2.03;;;;;18.40;97708.00;;;;5082323;28;20243;-70
2023/09/25 10:44:25;;;;;;;4.27;1.77;;;;;18.60;97698.00;;;;5083106;28;20213;-72
2023/09/25 10:47:14;;;;;;;2.37;1.90;;;;;18.50;97698.00;;;;5084978;28;20214;-70
2023/09/25 10:50:03;;;;;;;2.47;2.10;;;;;18.60;97686.00;;;;5082874;28;20684;-71
2023/09/25 10:52:52;;;;;;;2.07;1.70;;;;;18.60;97682.00;;;;5083047;28;20676;-71
2023/09/25 10:55:42;;;;;;;5.70;2.30;;;;;18.70;97677.00;;;;5086790;28;20203;-69
2023/09/25 10:58:31;;;;;;;2.53;2.10;;;;;18.70;97677.00;;;;5081660;28;20200;-73
2023/09/25 11:01:28;;;;;;;3.27;2.07;;;;;18.80;97670.00;;;;5081518;28;20231;-71
2023/09/25 11:04:17;;;;;;;4.97;2.60;;;;;19.10;97660.00;;;;5085995;28;20273;-70
2023/09/25 11:07:07;;;;;;;2.93;1.87;;;;;18.90;97659.00;;;;5087368;28;20199;-71
2023/09/25 11:09:56;;;;;;;3.10;1.83;;;;;18.90;97638.00;;;;5084074;28;20207;-70
2023/09/25 11:12:47;;;;;;;2.70;1.90;;;;;19.40;97632.00;;;;5084375;28;20200;-71
2023/09/25 11:15:37;;;;;;;1.70;1.30;;;;;19.80;97636.00;;;;5085396;28;20698;-70
2023/09/25 11:18:28;;;;;;;2.50;1.63;;;;;20.10;97641.00;;;;5078371;28;20215;-71
2023/09/25 11:21:18;;;;;;;5.33;1.70;;;;;20.20;97636.00;;;;5082492;28;20215;-71
2023/09/25 11:24:09;;;;;;;1.87;1.50;;;;;20.40;97633.00;;;;5081003;28;20203;-72
2023/09/25 11:26:58;;;;;;;4.13;1.57;;;;;19.90;97633.00;;;;5086964;28;20216;-70
2023/09/25 11:29:50;;;;;;;4.30;2.27;;;;;20.80;97630.00;;;;5082662;28;20202;-73
2023/09/25 11:32:40;;;;;;;1.73;1.47;;;;;21.20;97615.00;;;;5084839;28;20206;-72
2023/09/25 11:35:34;;;;;;;2.53;1.73;;;;;21.20;97625.00;;;;5087479;28;20199;-72
2023/09/25 11:38:25;;;;;;;2.43;2.00;;;;;21.30;97626.00;;;;5084239;28;20203;-74
2023/09/25 11:41:14;;;;;;;3.30;1.40;;;;;21.50;97626.00;;;;5077500;28;20227;-72
2023/09/25 11:44:04;;;;;;;3.17;1.83;;;;;21.70;97618.00;;;;5078859;28;20230;-71
2023/09/25 11:46:56;;;;;;;2.00;1.53;;;;;21.90;97609.00;;;;5080412;28;20228;-71
2023/09/25 11:49:45;;;;;;;1.80;1.37;;;;;22.10;97611.00;;;;5079164;28;20549;-71
2023/09/25 11:52:36;;;;;;;6.27;1.80;;;;;22.10;97610.00;;;;5081655;28;20672;-72
2023/09/25 11:55:27;;;;;;;2.20;1.80;;;;;22.10;97616.00;;;;5082406;28;20216;-73
2023/09/25 11:58:16;;;;;;;1.73;1.63;;;;;22.10;97613.00;;;;5082635;28;20274;-72
2023/09/25 12:01:05;;;;;;;3.13;1.67;;;;;22.20;97611.00;;;;5083038;28;20230;-71
2023/09/25 12:03:54;;;;;;;4.47;1.80;;;;;22.20;97616.00;;;;5084228;28;20208;-72
2023/09/25 12:06:46;;;;;;;2.00;1.60;;;;;21.50;97613.00;;;;5084724;28;22083;-71
2023/09/25 12:09:36;;;;;;;5.33;1.10;;;;;21.30;97613.00;;;;5080044;28;20203;-71
2023/09/25 12:12:26;;;;;;;3.33;1.77;;;;;21.80;97607.00;;;;5081817;28;20203;-71
2023/09/25 12:15:16;;;;;;;3.10;1.33;;;;;21.40;97607.00;;;;5080069;28;20252;-73
2023/09/25 12:18:05;;;;;;;2.63;1.87;;;;;21.70;97612.00;;;;5080524;28;20206;-71
2023/09/25 12:20:55;;;;;;;6.27;1.57;;;;;21.60;97615.00;;;;5081582;28;20223;-72
2023/09/25 12:23:44;;;;;;;3.87;1.53;;;;;21.30;97617.00;;;;5079470;28;20208;-73
2023/09/25 12:26:35;;;;;;;3.23;1.50;;;;;21.20;97608.00;;;;5079282;28;20235;-71
2023/09/25 12:29:24;;;;;;;1.57;1.33;;;;;21.20;97609.00;;;;5080971;28;20200;-73
2023/09/25 12:32:14;;;;;;;5.30;1.73;;;;;21.00;97595.00;;;;5082176;28;20226;-72
2023/09/25 12:35:03;;;;;;;1.50;1.37;;;;;21.60;97608.00;;;;5080190;28;20199;-72
2023/09/25 12:37:54;;;;;;;2.73;1.57;;;;;21.30;97615.00;;;;5080913;28;20695;-72
2023/09/25 12:40:42;;;;;;;1.40;1.30;;;;;21.50;97604.00;;;;5081108;28;20218;-71
2023/09/25 12:43:33;;;;;;;1.30;1.20;;;;;21.20;97607.00;;;;5076251;28;20208;-70
2023/09/25 12:46:22;;;;;;;2.20;1.40;;;;;21.50;97612.00;;;;5080098;28;20222;-71
2023/09/25 12:49:11;;;;;;;2.23;1.60;;;;;21.80;97613.00;;;;5081981;28;20209;-71
2023/09/25 12:52:00;;;;;;;2.37;1.50;;;;;22.00;97611.00;;;;5082827;28;20218;-70
2023/09/25 12:54:49;;;;;;;15.57;4.20;;;;;22.00;97609.00;;;;5082405;28;20195;-71
2023/09/25 12:57:38;;;;;;;14.90;4.17;;;;;22.20;97614.00;;;;5082515;28;20196;-73
2023/09/25 13:00:29;;;;;;;14.37;3.87;;;;;22.20;97614.00;;;;5082215;28;20237;-71
2023/09/25 13:03:18;;;;;;;3.67;2.27;;;;;22.30;97609.00;;;;5085442;28;20207;-72
2023/09/25 13:06:07;;;;;;;3.17;2.00;;;;;22.40;97606.00;;;;5079719;28;20993;-72
2023/09/25 13:08:56;;;;;;;2.07;1.60;;;;;22.60;97612.00;;;;5084797;28;20195;-71
2023/09/25 13:11:46;;;;;;;3.50;1.80;;;;;22.90;97612.00;;;;5105783;22;21079;-67
2023/09/25 13:14:35;;;;;;;2.73;1.63;;;;;23.10;97601.00;;;;5104496;28;20199;-67
2023/09/25 13:17:25;;;;;;;4.07;1.83;;;;;23.20;97614.00;;;;5100002;28;20210;-67
2023/09/25 13:20:15;;;;;;;2.30;1.67;;;;;23.30;97604.00;;;;5108835;27;20246;-67
2023/09/25 13:23:04;;;;;;;2.70;1.80;;;;;23.80;97598.00;;;;5091715;28;20582;-67
2023/09/25 13:25:54;;;;;;;19.00;6.47;;;;;24.00;97572.00;;;;5081901;28;20231;-67
2023/09/25 13:28:43;;;;;;;20.40;7.67;;;;;26.50;97546.00;;;;5081339;28;20200;-67
2023/09/25 13:31:33;;;;;;;8.87;3.50;;;;;27.10;97600.00;;;;5081017;28;20227;-68
2023/09/25 13:34:26;;;;;;;4.63;2.00;;;;;26.40;97611.00;;;;5077952;28;20213;-68
2023/09/25 13:37:15;;;;;;;2.93;1.87;;;;;25.00;97619.00;;;;5076240;28;20704;-68
2023/09/25 13:40:06;;;;;;;3.83;1.73;;;;;24.90;97619.00;;;;5089311;28;20208;-68
2023/09/25 13:42:55;;;;;;;1.93;1.73;;;;;25.70;97617.00;;;;5080665;28;20586;-68
2023/09/25 13:45:44;;;;;;;2.17;1.57;;;;;27.10;97580.00;;;;5087953;28;20217;-68
2023/09/25 13:48:35;;;;;;;2.60;1.83;;;;;28.90;97565.00;;;;5087560;28;20204;-68
2023/09/25 13:51:25;;;;;;;4.97;2.03;;;;;29.90;97612.00;;;;5085790;28;20244;-68
2023/09/25 13:54:14;;;;;;;1.87;1.63;;;;;28.30;97626.00;;;;5085546;28;20580;-68
2023/09/25 13:57:04;;;;;;;16.20;4.70;;;;;27.40;97629.00;;;;5086248;28;20215;-68
2023/09/25 13:59:53;;;;;;;4.83;1.53;;;;;26.80;97631.00;;;;5088705;28;20213;-68
2023/09/25 14:02:42;;;;;;;2.20;1.33;;;;;26.20;97630.00;;;;5088622;28;20232;-68
2023/09/25 14:05:35;;;;;;;3.17;1.53;;;;;25.70;97629.00;;;;5087268;28;20205;-68
2023/09/25 14:08:26;;;;;;;1.70;1.60;;;;;24.70;97633.00;;;;5085072;28;20578;-68
2023/09/25 14:11:15;;;;;;;4.33;2.10;;;;;24.50;97642.00;;;;5080263;28;20230;-68